Time;durP1;ratioP1;P1;durP2;ratioP2;P2;SDS_P1;SDS_P2;PMS_P1;PMS_P2;Temp;Humidity;BMP_temperature;BMP_pressure;BME280_temperature;BME280_humidity;BME280_pressure;Samples;Min_cycle;Max_cycle;Signal;HPM_P1;HPM_P2
2022/06/21 00:00:04;;;;;;;;;9.00;9.00;;;;;35.57;23.48;100872.78;4900903;28;45442;-78
2022/06/21 00:02:31;;;;;;;;;8.00;8.00;;;;;35.52;23.19;100864.91;4900352;29;46045;-78
2022/06/21 00:04:56;;;;;;;;;9.33;7.67;;;;;35.54;23.12;100858.28;4900714;29;45466;-79
2022/06/21 00:07:26;;;;;;;;;7.33;7.33;;;;;35.51;23.19;100861.28;4900462;28;45383;-78
2022/06/21 00:09:51;;;;;;;;;8.00;8.00;;;;;35.40;23.33;100866.81;4900806;29;45447;-78
2022/06/21 00:12:17;;;;;;;;;6.67;6.00;;;;;35.47;22.98;100851.53;4900565;29;45500;-78
2022/06/21 00:14:43;;;;;;;;;6.00;6.00;;;;;35.61;23.17;100860.50;4915429;28;45408;-78
2022/06/21 00:17:17;;;;;;;;;9.00;9.00;;;;;35.57;23.17;100857.13;4900737;28;45378;-78
2022/06/21 00:19:43;;;;;;;;;11.00;8.00;;;;;35.49;23.33;100837.59;4900630;28;45424;-78
2022/06/21 00:22:14;;;;;;;;;7.00;7.00;;;;;35.53;22.80;100845.47;4899967;29;46084;-79
2022/06/21 00:24:39;;;;;;;;;6.33;6.33;;;;;35.50;23.03;100836.56;4900433;28;45426;-78
2022/06/21 00:27:13;;;;;;;;;7.00;7.00;;;;;35.66;23.24;100844.44;4915126;28;45421;-78
2022/06/21 00:29:39;;;;;;;;;7.67;7.33;;;;;35.49;23.20;100821.91;4900479;28;45500;-78
2022/06/21 00:32:05;;;;;;;;;8.00;7.00;;;;;35.51;23.44;100827.28;4900288;29;46228;-78
2022/06/21 00:34:30;;;;;;;;;7.00;7.00;;;;;35.50;23.10;100831.94;4899404;29;45527;-79
2022/06/21 00:37:00;;;;;;;;;6.00;6.00;;;;;35.40;23.04;100835.59;4915231;28;45624;-79
2022/06/21 00:39:25;;;;;;;;;7.00;7.00;;;;;35.43;23.25;100852.78;4900518;28;45388;-78
2022/06/21 00:41:53;;;;;;;;;7.00;6.00;;;;;35.58;23.26;100849.72;4899849;29;45363;-78
2022/06/21 00:44:27;;;;;;;;;6.67;6.67;;;;;35.47;23.19;100847.88;4900191;28;45557;-78
2022/06/21 00:47:00;;;;;;;;;7.00;7.00;;;;;35.51;23.18;100846.59;4915065;28;45255;-78
2022/06/21 00:49:31;;;;;;;;;10.33;10.33;;;;;35.27;22.82;100788.84;4899756;28;45386;-78
2022/06/21 00:52:07;;;;;;;;;7.00;6.33;;;;;35.46;22.86;100819.41;4899989;28;45368;-78
2022/06/21 00:54:44;;;;;;;;;7.00;7.00;;;;;35.52;23.12;100835.44;4899883;29;45480;-78
2022/06/21 00:57:15;;;;;;;;;8.67;8.67;;;;;35.46;22.60;100813.91;4900024;28;45304;-78
2022/06/21 00:59:40;;;;;;;;;8.67;7.67;;;;;35.49;22.77;100821.03;4914616;28;45279;-78
2022/06/21 01:02:17;;;;;;;;;11.00;8.00;;;;;35.53;22.85;100837.19;4914556;28;46945;-78
2022/06/21 01:04:48;;;;;;;;;10.00;7.00;;;;;35.67;22.77;100854.47;4899542;29;45437;-78
2022/06/21 01:07:14;;;;;;;;;9.00;8.33;;;;;35.44;22.60;100835.22;4900115;28;45367;-78
2022/06/21 01:09:52;;;;;;;;;9.33;8.33;;;;;35.30;22.75;100805.13;4914318;28;45240;-78
2022/06/21 01:12:24;;;;;;;;;7.67;7.67;;;;;35.58;22.59;100855.25;4899712;29;46143;-78
2022/06/21 01:15:13;;;;;;;;;9.00;7.00;;;;;35.52;22.71;100852.00;4899648;29;45357;-78
2022/06/21 01:17:39;;;;;;;;;9.00;9.00;;;;;35.55;22.90;100848.97;4897563;29;45514;-78
2022/06/21 01:20:09;;;;;;;;;5.67;5.67;;;;;35.47;23.09;100832.22;4899524;29;45482;-78
2022/06/21 01:23:06;;;;;;;;;8.67;8.67;;;;;35.45;22.99;100828.69;4899354;29;45810;-78
2022/06/21 01:25:51;;;;;;;;;9.67;9.67;;;;;35.48;22.84;100841.34;4900167;28;45380;-78
2022/06/21 01:28:17;;;;;;;;;8.00;8.00;;;;;35.48;23.04;100867.06;4899616;29;45572;-78
2022/06/21 01:30:46;;;;;;;;;11.33;11.33;;;;;35.29;22.81;100855.78;4899178;29;45322;-78
2022/06/21 01:33:15;;;;;;;;;9.00;9.00;;;;;35.37;23.15;100854.19;4899058;28;45540;-78
2022/06/21 01:35:47;;;;;;;;;10.67;7.67;;;;;35.38;23.11;100844.03;4898914;29;45508;-79
2022/06/21 01:38:20;;;;;;;;;10.00;9.00;;;;;35.37;22.99;100858.81;4914125;28;45600;-79
2022/06/21 01:40:51;;;;;;;;;10.00;10.00;;;;;35.32;22.87;100867.47;4899326;28;45336;-78
2022/06/21 01:43:22;;;;;;;;;9.00;9.00;;;;;35.50;22.82;100889.88;4913682;28;47441;-78
2022/06/21 01:45:55;;;;;;;;;10.00;10.00;;;;;35.48;22.86;100872.56;4899208;29;45367;-78
2022/06/21 01:48:38;;;;;;;;;8.33;8.33;;;;;35.57;23.04;100875.56;4913778;28;45485;-78
2022/06/21 01:51:08;;;;;;;;;9.67;9.67;;;;;35.41;23.15;100873.22;4899101;28;45501;-78
2022/06/21 01:53:36;;;;;;;;;9.33;9.33;;;;;35.47;23.03;100892.00;4898898;29;45410;-78
2022/06/21 01:56:09;;;;;;;;;10.67;9.33;;;;;35.46;23.41;100891.16;4899112;28;45399;-78
2022/06/21 01:58:50;;;;;;;;;11.00;10.00;;;;;35.52;22.70;100909.94;4913691;28;45303;-78
2022/06/21 02:01:36;;;;;;;;;12.33;12.33;;;;;35.53;22.77;100921.88;4899180;28;45304;-78
2022/06/21 02:04:05;;;;;;;;;10.33;9.00;;;;;35.64;23.01;100948.53;4913421;28;46981;-78
2022/06/21 02:06:35;;;;;;;;;9.00;9.00;;;;;35.62;22.91;100939.53;4898689;28;45234;-78
2022/06/21 02:09:06;;;;;;;;;9.33;9.33;;;;;35.62;22.76;100942.28;4899267;28;45424;-78
2022/06/21 02:12:09;;;;;;;;;10.67;10.67;;;;;35.66;22.85;100955.69;4898968;28;45431;-78
2022/06/21 02:14:41;;;;;;;;;10.33;10.00;;;;;35.61;22.94;100940.53;4898980;28;46653;-78
2022/06/21 02:17:34;;;;;;;;;12.33;11.00;;;;;35.70;22.82;100953.56;4898312;29;45459;-78
2022/06/21 02:20:02;;;;;;;;;9.67;9.00;;;;;35.70;22.72;100945.28;4899137;29;45405;-78
2022/06/21 02:22:30;;;;;;;;;9.00;9.00;;;;;35.58;22.89;100927.00;4898840;29;45537;-78
2022/06/21 02:24:56;;;;;;;;;13.00;12.67;;;;;35.51;23.08;100913.72;4913140;28;47130;-78
2022/06/21 02:27:27;;;;;;;;;10.00;9.67;;;;;35.43;22.48;100901.56;4898933;28;45288;-78
2022/06/21 02:29:56;;;;;;;;;17.33;14.67;;;;;35.07;23.09;100871.38;4900342;28;45374;-78
2022/06/21 02:32:32;;;;;;;;;11.67;10.00;;;;;35.10;23.31;100876.63;4901914;29;45255;-78
2022/06/21 02:35:24;;;;;;;;;10.00;10.00;;;;;35.03;23.23;100879.00;4901729;28;46259;-78
2022/06/21 02:37:53;;;;;;;;;11.67;10.67;;;;;35.01;22.98;100849.84;4901816;28;45390;-78
2022/06/21 02:40:28;;;;;;;;;11.33;10.00;;;;;35.13;23.44;100862.59;4901944;28;45436;-78
2022/06/21 02:43:01;;;;;;;;;11.67;11.33;;;;;35.26;23.21;100861.56;4901888;28;45362;-79
2022/06/21 02:45:33;;;;;;;;;10.00;9.00;;;;;35.35;23.38;100874.63;4901548;28;45496;-79
2022/06/21 02:48:05;;;;;;;;;9.00;9.00;;;;;35.20;23.41;100857.44;4901863;28;45331;-78
2022/06/21 02:50:32;;;;;;;;;11.33;10.33;;;;;35.35;23.32;100894.81;4901919;28;45521;-78
2022/06/21 02:53:00;;;;;;;;;9.00;9.00;;;;;35.30;23.12;100887.88;4901931;28;45515;-79
2022/06/21 02:55:41;;;;;;;;;11.00;10.00;;;;;35.27;23.63;100855.06;4901702;29;46414;-79
2022/06/21 02:58:14;;;;;;;;;10.33;10.33;;;;;35.37;23.44;100864.31;4901851;29;45464;-78
2022/06/21 03:00:42;;;;;;;;;9.33;9.33;;;;;35.35;23.77;100850.66;4901312;28;45368;-78
2022/06/21 03:03:15;;;;;;;;;9.67;9.33;;;;;35.35;23.53;100841.53;4901579;28;45452;-78
2022/06/21 03:05:40;;;;;;;;;14.00;11.00;;;;;35.44;23.57;100854.53;4901557;28;45462;-78
2022/06/21 03:08:06;;;;;;;;;10.00;10.00;;;;;35.47;23.31;100848.78;4901481;28;45372;-78
2022/06/21 03:10:40;;;;;;;;;11.33;9.33;;;;;35.36;23.31;100840.53;4901639;28;45351;-78
2022/06/21 03:13:11;;;;;;;;;11.67;10.00;;;;;35.36;23.74;100838.63;4901739;29;45331;-78
2022/06/21 03:15:38;;;;;;;;;8.33;8.33;;;;;35.34;24.03;100823.22;4900992;29;46300;-79
2022/06/21 03:18:09;;;;;;;;;8.33;8.33;;;;;35.08;23.80;100809.72;4901527;29;45374;-78
2022/06/21 03:20:34;;;;;;;;;12.67;12.67;;;;;35.18;24.15;100818.97;4901548;28;45310;-79
2022/06/21 03:23:02;;;;;;;;;10.00;10.00;;;;;35.22;23.94;100805.81;4901334;28;45590;-78
2022/06/21 03:25:52;;;;;;;;;10.00;10.00;;;;;35.25;23.88;100813.81;4901361;28;46547;-78
2022/06/21 03:28:36;;;;;;;;;10.00;9.00;;;;;35.06;23.97;100767.59;4903622;28;45493;-79
2022/06/21 03:31:20;;;;;;;;;13.00;10.00;;;;;35.08;23.92;100761.97;4901141;29;45436;-79
2022/06/21 03:33:50;;;;;;;;;12.33;12.33;;;;;35.04;23.73;100764.13;4900999;28;45424;-79
2022/06/21 03:36:19;;;;;;;;;11.33;9.00;;;;;35.18;23.75;100783.13;4900827;29;46393;-79
2022/06/21 03:38:49;;;;;;;;;10.67;10.67;;;;;34.96;23.64;100752.84;4900952;28;45490;-78
2022/06/21 03:44:09;;;;;;;;;9.00;9.00;;;;;34.94;23.75;100743.84;4900612;29;45423;-76
2022/06/21 03:46:45;;;;;;;;;13.67;13.33;;;;;34.59;24.22;100714.59;4915581;28;46416;-78
2022/06/21 03:49:37;;;;;;;;;15.33;13.33;;;;;34.80;24.14;100732.09;4900998;28;45368;-78
2022/06/21 03:52:10;;;;;;;;;12.00;12.00;;;;;34.70;24.27;100695.28;4900879;29;45411;-79
2022/06/21 03:54:45;;;;;;;;;14.33;13.33;;;;;34.60;24.24;100699.78;4900800;29;45525;-79
2022/06/21 03:57:26;;;;;;;;;12.00;10.33;;;;;34.65;24.77;100703.03;4900753;29;45352;-79
2022/06/21 04:00:07;;;;;;;;;14.67;14.00;;;;;34.46;24.49;100679.78;4900257;29;45478;-79
2022/06/21 04:02:49;;;;;;;;;8.33;7.33;;;;;34.67;24.51;100701.00;4900705;28;45507;-79
2022/06/21 04:05:28;;;;;;;;;11.33;11.33;;;;;34.66;24.92;100693.78;4900970;28;45570;-79
2022/06/21 04:08:06;;;;;;;;;10.67;10.67;;;;;34.63;24.99;100685.78;4900476;29;46203;-79
2022/06/21 04:10:39;;;;;;;;;14.00;12.00;;;;;34.49;24.77;100670.41;4900537;28;45394;-79
2022/06/21 04:13:22;;;;;;;;;11.33;11.33;;;;;34.51;25.35;100674.75;4900394;29;45460;-80
2022/06/21 04:15:55;;;;;;;;;12.67;12.67;;;;;34.40;25.20;100658.25;4900392;29;45583;-79
2022/06/21 04:18:28;;;;;;;;;11.67;11.67;;;;;34.43;25.41;100662.63;4900521;29;46554;-71
2022/06/21 04:21:14;;;;;;;;;12.00;12.00;;;;;34.31;25.76;100661.78;4900209;29;45426;-72
2022/06/21 04:23:51;;;;;;;;;13.67;12.67;;;;;34.22;25.64;100644.13;4900553;29;45347;-70
2022/06/21 04:26:26;;;;;;;;;14.00;12.67;;;;;34.36;25.70;100654.00;4915018;28;45486;-72
2022/06/21 04:29:16;;;;;;;;;13.33;13.33;;;;;34.53;25.79;100652.63;4899721;29;46058;-71
2022/06/21 04:31:51;;;;;;;;;11.33;8.67;;;;;34.68;25.50;100654.06;4900117;29;45445;-71
2022/06/21 04:34:38;;;;;;;;;11.67;10.67;;;;;34.73;25.45;100636.25;4914608;28;45387;-72
2022/06/21 04:37:10;;;;;;;;;12.67;12.00;;;;;34.73;25.46;100642.66;4900391;29;45480;-72
2022/06/21 04:39:50;;;;;;;;;14.00;13.33;;;;;34.52;25.61;100620.56;4899986;29;46426;-72
2022/06/21 04:42:22;;;;;;;;;14.67;14.33;;;;;34.78;25.60;100645.00;4899963;29;45418;-72
2022/06/21 04:44:51;;;;;;;;;12.33;12.33;;;;;34.78;25.75;100637.63;4900074;29;45372;-72
2022/06/21 04:47:35;;;;;;;;;11.33;11.33;;;;;34.70;25.59;100607.97;4900337;28;45535;-72
2022/06/21 04:50:21;;;;;;;;;12.33;11.67;;;;;34.79;25.39;100610.94;4898635;29;47400;-71
2022/06/21 04:52:57;;;;;;;;;13.67;13.67;;;;;34.74;25.24;100607.69;4899092;28;46307;-72
2022/06/21 04:55:34;;;;;;;;;15.33;12.67;;;;;34.81;25.66;100604.31;4900233;29;45494;-71
2022/06/21 04:57:59;;;;;;;;;12.67;12.67;;;;;34.77;25.57;100602.81;4899895;29;45509;-75
2022/06/21 05:00:25;;;;;;;;;12.00;11.00;;;;;34.77;25.46;100593.66;4899776;28;45619;-71
2022/06/21 05:02:54;;;;;;;;;12.67;12.67;;;;;34.86;25.10;100595.66;4899348;29;45510;-72
2022/06/21 05:05:25;;;;;;;;;11.67;11.67;;;;;34.91;25.64;100606.28;4899882;28;45358;-70
2022/06/21 05:07:59;;;;;;;;;13.00;13.00;;;;;34.73;25.39;100606.81;4899602;29;45444;-71
2022/06/21 05:10:32;;;;;;;;;15.00;13.33;;;;;34.60;24.84;100620.78;4913751;28;48290;-71
2022/06/21 05:13:00;;;;;;;;;14.00;12.33;;;;;34.52;25.09;100648.09;4899378;29;45473;-71
2022/06/21 05:15:35;;;;;;;;;13.67;13.67;;;;;34.39;25.11;100651.00;4899645;29;45399;-71
2022/06/21 05:18:11;;;;;;;;;13.33;12.00;;;;;34.40;25.71;100647.22;4899484;28;45520;-71
2022/06/21 05:20:53;;;;;;;;;13.00;12.33;;;;;34.45;25.64;100653.25;4899448;28;45391;-72
2022/06/21 05:23:20;;;;;;;;;12.67;11.67;;;;;34.50;25.30;100662.00;4899403;28;45431;-72
2022/06/21 05:25:47;;;;;;;;;14.33;13.00;;;;;34.54;25.52;100676.38;4913621;28;45470;-72
2022/06/21 05:28:16;;;;;;;;;17.67;16.33;;;;;34.51;25.02;100684.91;4899347;28;45429;-67
2022/06/21 05:30:45;;;;;;;;;13.67;12.33;;;;;34.68;25.77;100705.53;4898282;28;45392;-67
2022/06/21 05:33:22;;;;;;;;;12.67;12.67;;;;;34.77;25.23;100688.22;4898897;28;45422;-66
2022/06/21 05:35:49;;;;;;;;;12.67;12.67;;;;;34.79;25.05;100677.09;4899030;29;45454;-67
2022/06/21 05:38:27;;;;;;;;;13.33;11.00;;;;;34.89;25.04;100688.22;4899057;29;45319;-67
2022/06/21 05:40:58;;;;;;;;;13.33;10.33;;;;;34.90;24.72;100676.22;4897110;29;47379;-67
2022/06/21 05:43:47;;;;;;;;;13.33;12.33;;;;;34.92;24.57;100663.16;4897769;29;45582;-80
2022/06/21 05:46:19;;;;;;;;;13.33;13.33;;;;;34.94;24.63;100641.88;4884239;28;45455;-80
2022/06/21 05:48:45;;;;;;;;;13.33;12.33;;;;;34.89;24.58;100641.38;4886769;29;45515;-78
2022/06/21 05:51:32;;;;;;;;;11.67;11.67;;;;;35.02;24.86;100666.84;4895084;29;46283;-76
2022/06/21 05:54:06;;;;;;;;;14.33;14.00;;;;;35.03;24.62;100652.94;4879708;29;45674;-78
2022/06/21 05:56:34;;;;;;;;;10.33;10.33;;;;;34.47;24.69;100640.22;4880041;29;45430;-79
2022/06/21 05:59:07;;;;;;;;;16.00;14.67;;;;;34.27;25.55;100625.31;4880035;29;45571;-78
2022/06/21 06:01:41;;;;;;;;;12.33;12.00;;;;;34.60;25.15;100666.72;4879854;29;45480;-78
2022/06/21 06:04:15;;;;;;;;;15.00;15.00;;;;;34.59;24.59;100653.97;4894925;29;45445;-78
2022/06/21 06:06:43;;;;;;;;;13.33;12.33;;;;;34.72;25.15;100649.16;4899074;28;45475;-78
2022/06/21 06:09:19;;;;;;;;;12.67;12.67;;;;;34.81;25.02;100651.19;4898667;28;45366;-78
2022/06/21 06:12:00;;;;;;;;;14.33;12.00;;;;;34.92;24.76;100643.84;4896472;29;45674;-78
2022/06/21 06:14:43;;;;;;;;;14.67;12.00;;;;;35.06;25.09;100653.69;4896299;29;45774;-78
2022/06/21 06:17:36;;;;;;;;;12.67;12.67;;;;;35.02;24.70;100642.94;4911115;28;45480;-78
2022/06/21 06:20:13;;;;;;;;;16.00;13.33;;;;;35.09;24.79;100650.66;4896414;29;45370;-78
2022/06/21 06:22:46;;;;;;;;;16.00;13.67;;;;;35.04;24.83;100662.09;4895923;29;46482;-78
2022/06/21 06:25:23;;;;;;;;;14.33;13.00;;;;;35.08;24.51;100673.72;4896765;28;45406;-78
2022/06/21 06:28:08;;;;;;;;;13.67;13.33;;;;;35.16;24.93;100662.91;4898595;28;45812;-78
2022/06/21 06:30:45;;;;;;;;;13.33;12.33;;;;;35.15;24.59;100647.41;4898574;28;45336;-78
2022/06/21 06:33:25;;;;;;;;;10.33;10.33;;;;;35.31;24.63;100682.81;4898248;28;46622;-78
2022/06/21 06:35:54;;;;;;;;;11.33;9.33;;;;;35.30;24.75;100684.72;4898230;29;45227;-78
2022/06/21 06:38:19;;;;;;;;;12.67;12.67;;;;;35.34;24.78;100694.44;4896943;29;45438;-78
2022/06/21 06:40:53;;;;;;;;;12.33;12.33;;;;;35.28;24.75;100674.78;4898556;28;45521;-78
2022/06/21 06:43:36;;;;;;;;;13.00;12.33;;;;;35.33;24.49;100686.31;4897063;29;47376;-78
2022/06/21 06:46:04;;;;;;;;;13.67;13.33;;;;;35.29;24.67;100684.78;4912707;28;45390;-78
2022/06/21 06:48:33;;;;;;;;;12.67;11.00;;;;;35.34;24.63;100693.56;4898534;28;45411;-78
2022/06/21 06:51:24;;;;;;;;;11.67;11.33;;;;;35.38;24.54;100706.97;4898190;29;45414;-78
2022/06/21 06:53:55;;;;;;;;;12.33;12.33;;;;;35.28;24.82;100692.19;4903514;28;46721;-78
2022/06/21 06:56:29;;;;;;;;;13.67;13.33;;;;;35.51;24.19;100706.78;4898219;29;45382;-78
2022/06/21 06:59:12;;;;;;;;;13.33;13.33;;;;;35.53;24.46;100707.50;4898229;28;45339;-77
2022/06/21 07:01:43;;;;;;;;;14.33;11.33;;;;;35.46;24.42;100710.94;4898283;29;45498;-78
2022/06/21 07:04:14;;;;;;;;;12.00;12.00;;;;;35.43;24.61;100703.81;4912510;28;47043;-78
2022/06/21 07:06:48;;;;;;;;;9.67;9.00;;;;;35.57;24.41;100705.38;4897902;28;45334;-78
2022/06/21 07:09:16;;;;;;;;;13.00;13.00;;;;;35.56;24.67;100709.13;4898424;28;45262;-78
2022/06/21 07:11:42;;;;;;;;;16.67;13.67;;;;;35.60;24.41;100704.19;4912790;28;45394;-77
2022/06/21 07:14:20;;;;;;;;;13.67;13.67;;;;;35.62;24.92;100708.59;4912676;28;48139;-77
2022/06/21 07:16:49;;;;;;;;;14.00;14.00;;;;;35.82;24.84;100728.06;4900931;28;45394;-77
2022/06/21 07:19:15;;;;;;;;;15.33;15.33;;;;;35.84;24.70;100713.13;4901661;28;45440;-77
2022/06/21 07:21:41;;;;;;;;;14.00;14.00;;;;;35.68;24.43;100682.31;4901005;29;45405;-78
2022/06/21 07:24:15;;;;;;;;;15.00;15.00;;;;;36.00;24.51;100728.31;4901063;28;46564;-77
2022/06/21 07:27:04;;;;;;;;;14.67;14.67;;;;;36.13;24.33;100733.59;4915816;28;45546;-77
2022/06/21 07:29:35;;;;;;;;;14.33;14.33;;;;;36.21;24.56;100718.09;4901208;28;45474;-78
2022/06/21 07:32:08;;;;;;;;;14.33;14.33;;;;;36.29;23.97;100728.47;4901111;28;45347;-77
2022/06/21 07:34:42;;;;;;;;;14.00;12.67;;;;;36.36;24.24;100717.75;4900947;28;46537;-78
2022/06/21 07:37:24;;;;;;;;;15.67;14.67;;;;;36.44;24.32;100723.44;4915207;28;45569;-78
2022/06/21 07:40:22;;;;;;;;;13.67;13.67;;;;;36.37;24.54;100730.53;4901115;28;45386;-78
2022/06/21 07:42:57;;;;;;;;;15.00;13.67;;;;;36.40;24.06;100744.09;4915417;28;45374;-78
2022/06/21 07:45:37;;;;;;;;;12.00;12.00;;;;;36.50;24.82;100731.19;4900774;28;45437;-78
2022/06/21 07:48:10;;;;;;;;;15.00;15.00;;;;;36.70;24.05;100753.34;4900981;29;45497;-78
2022/06/21 07:50:44;;;;;;;;;14.33;14.33;;;;;36.78;24.58;100748.00;4900685;28;45368;-78
2022/06/21 07:53:19;;;;;;;;;13.67;13.67;;;;;36.83;24.22;100731.88;4900838;28;45322;-78
2022/06/21 07:55:58;;;;;;;;;13.00;13.00;;;;;36.74;23.77;100732.72;4915197;28;48160;-78
2022/06/21 07:58:31;;;;;;;;;11.00;11.00;;;;;36.73;23.94;100747.53;4915324;28;45305;-77
2022/06/21 08:06:42;;;;;;;;;12.00;12.00;;;;;36.72;24.70;100748.53;4900654;29;45339;-77
2022/06/21 08:09:29;;;;;;;;;12.67;12.67;;;;;36.71;24.02;100757.84;4900388;28;45340;-77
2022/06/21 08:12:00;;;;;;;;;14.00;14.00;;;;;36.77;24.75;100749.00;4900575;28;45432;-77
2022/06/21 08:14:28;;;;;;;;;13.67;12.67;;;;;37.04;24.28;100733.66;4915405;28;45554;-77
2022/06/21 08:17:14;;;;;;;;;14.00;14.00;;;;;37.28;23.91;100733.25;4900277;29;45386;-77
2022/06/21 08:20:06;;;;;;;;;14.67;13.33;;;;;37.48;24.59;100742.41;4899872;28;45314;-77
2022/06/21 08:22:44;;;;;;;;;12.00;12.00;;;;;37.62;24.22;100759.59;4900447;28;45392;-77
2022/06/21 08:25:38;;;;;;;;;12.67;12.67;;;;;37.66;23.52;100752.75;4900454;29;45407;-77
2022/06/21 08:28:08;;;;;;;;;15.67;14.67;;;;;37.67;24.13;100747.06;4898961;28;45555;-77
2022/06/21 08:30:48;;;;;;;;;14.00;12.00;;;;;37.71;23.90;100753.19;4900281;28;45205;-77
2022/06/21 08:33:23;;;;;;;;;14.33;12.33;;;;;37.79;23.42;100733.94;4899928;29;45394;-77
2022/06/21 08:36:04;;;;;;;;;9.33;9.33;;;;;38.01;23.21;100759.56;4900121;28;45565;-77
2022/06/21 08:38:42;;;;;;;;;13.00;12.00;;;;;38.08;23.43;100757.94;4900001;29;46109;-77
2022/06/21 08:41:51;;;;;;;;;11.33;11.33;;;;;38.02;23.06;100762.19;4900060;28;45393;-77
2022/06/21 08:44:23;;;;;;;;;15.33;13.33;;;;;37.99;23.15;100761.59;4900179;28;45322;-77
2022/06/21 08:47:00;;;;;;;;;13.67;12.00;;;;;37.97;23.69;100763.66;4900226;29;45664;-77
2022/06/21 08:49:50;;;;;;;;;15.67;15.67;;;;;37.97;23.05;100763.66;4914212;28;47156;-77
2022/06/21 08:52:33;;;;;;;;;13.67;13.67;;;;;37.90;23.41;100772.53;4899777;28;45506;-77
2022/06/21 08:55:26;;;;;;;;;14.67;14.67;;;;;38.03;23.19;100776.91;4914726;28;45359;-77
2022/06/21 08:57:58;;;;;;;;;16.00;14.00;;;;;37.97;23.49;100771.97;4900149;29;45427;-77
2022/06/21 09:00:38;;;;;;;;;14.00;13.33;;;;;37.93;22.88;100758.44;4899866;29;46314;-77
2022/06/21 09:03:42;;;;;;;;;16.00;15.00;;;;;37.68;23.88;100759.91;4899246;29;45383;-78
2022/06/21 09:06:16;;;;;;;;;14.33;14.33;;;;;37.88;24.18;100760.75;4916169;28;45614;-77
2022/06/21 09:09:08;;;;;;;;;16.67;13.33;;;;;38.01;23.48;100745.72;4900813;28;45495;-77
2022/06/21 09:11:38;;;;;;;;;13.33;11.33;;;;;38.07;23.84;100756.19;4916351;28;46166;-77
2022/06/21 09:14:36;;;;;;;;;17.33;15.33;;;;;38.19;23.52;100754.97;4916492;28;45458;-77
2022/06/21 09:17:41;;;;;;;;;16.00;14.67;;;;;38.10;23.69;100758.66;4915945;28;45466;-77
2022/06/21 09:20:32;;;;;;;;;13.33;13.33;;;;;38.08;22.99;100744.94;4905408;28;45624;-77
2022/06/21 09:23:21;;;;;;;;;15.67;15.67;;;;;38.28;23.57;100744.06;4900204;28;47473;-77
2022/06/21 09:25:46;;;;;;;;;15.67;13.67;;;;;38.25;23.40;100751.63;4916274;28;45524;-77
2022/06/21 09:28:27;;;;;;;;;16.67;16.67;;;;;38.00;23.24;100750.38;4916282;28;45659;-77
2022/06/21 09:31:08;;;;;;;;;15.67;14.33;;;;;38.04;23.67;100750.94;4916453;28;45454;-77
2022/06/21 09:33:41;;;;;;;;;14.00;13.67;;;;;38.05;23.89;100744.41;4916066;28;45674;-77
2022/06/21 09:36:27;;;;;;;;;17.00;16.00;;;;;38.13;23.79;100738.97;4899856;28;45512;-77
2022/06/21 09:39:32;;;;;;;;;16.67;15.67;;;;;38.12;23.31;100731.69;4915688;28;45371;-77
2022/06/21 09:41:57;;;;;;;;;16.00;15.00;;;;;38.02;24.11;100733.63;4913853;28;45756;-77
2022/06/21 09:44:36;;;;;;;;;14.33;14.33;;;;;38.01;23.95;100732.72;4913642;28;47895;-77
2022/06/21 09:47:38;;;;;;;;;15.33;14.33;;;;;37.90;23.50;100732.91;4898845;28;45387;-77
2022/06/21 09:50:17;;;;;;;;;20.00;19.00;;;;;37.68;23.89;100710.06;4899227;29;45379;-77
2022/06/21 09:53:12;;;;;;;;;17.00;16.00;;;;;37.58;24.25;100712.84;4899215;28;45364;-77
2022/06/21 09:56:05;;;;;;;;;16.00;16.00;;;;;37.55;24.17;100718.69;4913273;28;48256;-77
2022/06/21 09:58:49;;;;;;;;;16.33;16.33;;;;;37.77;23.82;100713.84;4899080;29;45375;-77
2022/06/21 10:01:22;;;;;;;;;11.67;11.33;;;;;37.93;24.11;100708.56;4898737;29;45393;-77
2022/06/21 10:03:50;;;;;;;;;17.33;16.00;;;;;37.89;24.54;100709.00;4898881;29;45426;-77
2022/06/21 10:06:46;;;;;;;;;18.33;17.33;;;;;38.01;24.86;100709.72;4898557;28;45898;-77
2022/06/21 10:09:14;;;;;;;;;15.00;15.00;;;;;38.18;23.68;100678.44;4898870;29;45477;-77
2022/06/21 10:12:17;;;;;;;;;16.33;15.00;;;;;38.29;24.04;100710.66;4898853;29;45521;-77
2022/06/21 10:14:48;;;;;;;;;13.00;13.00;;;;;38.26;23.54;100692.44;4898756;28;45322;-77
2022/06/21 10:17:41;;;;;;;;;12.00;12.00;;;;;38.39;23.93;100702.28;4898767;28;45738;-77
2022/06/21 10:20:25;;;;;;;;;13.33;13.33;;;;;38.41;23.49;100697.44;4898450;28;45415;-77
2022/06/21 10:23:02;;;;;;;;;18.67;15.00;;;;;38.38;23.89;100695.00;4898850;28;45361;-77
2022/06/21 10:25:38;;;;;;;;;15.00;13.67;;;;;38.43;23.51;100685.19;4898775;28;45462;-77
2022/06/21 10:28:12;;;;;;;;;11.67;11.67;;;;;38.51;23.22;100676.13;4898728;29;46136;-77
2022/06/21 10:30:43;;;;;;;;;12.00;12.00;;;;;38.78;23.02;100689.09;4898219;29;45372;-77
2022/06/21 10:33:41;;;;;;;;;14.00;14.00;;;;;38.97;23.68;100669.69;4898577;28;45402;-77
2022/06/21 10:36:28;;;;;;;;;15.00;14.00;;;;;39.12;23.62;100679.19;4913089;28;45373;-77
2022/06/21 10:39:23;;;;;;;;;15.67;13.67;;;;;39.19;23.40;100674.78;4898454;29;46204;-77
2022/06/21 10:45:08;;;;;;;;;12.67;12.00;;;;;39.29;23.07;100658.03;4898134;29;45469;-77
2022/06/21 10:48:09;;;;;;;;;13.33;13.33;;;;;39.35;22.97;100665.69;4898578;29;45485;-77
2022/06/21 10:50:37;;;;;;;;;16.33;16.33;;;;;39.24;23.38;100658.53;4908246;28;45536;-77
2022/06/21 10:53:17;;;;;;;;;16.67;16.00;;;;;39.21;23.43;100666.28;4901561;28;45449;-78
2022/06/21 10:57:09;;;;;;;;;13.00;13.00;;;;;39.17;23.04;100667.63;4901752;28;45467;-77
2022/06/21 10:59:09;;;;;;;;;18.00;16.00;;;;;39.26;22.85;100662.00;4901484;28;45484;-77
2022/06/21 11:01:50;;;;;;;;;14.00;14.00;;;;;39.23;22.87;100647.59;4901384;28;46046;-77
2022/06/21 11:04:25;;;;;;;;;15.67;15.67;;;;;39.24;22.72;100658.53;4901194;29;45529;-77
2022/06/21 11:07:08;;;;;;;;;14.00;14.00;;;;;39.21;23.02;100650.50;4901546;28;45420;-77
2022/06/21 11:09:36;;;;;;;;;15.00;13.00;;;;;39.50;23.00;100652.13;4901629;29;45381;-77
2022/06/21 11:12:54;;;;;;;;;14.00;14.00;;;;;39.66;23.00;100650.50;4901401;28;46185;-77
2022/06/21 11:15:28;;;;;;;;;12.33;11.33;;;;;39.60;22.66;100641.78;4917891;28;45462;-77
2022/06/21 11:18:12;;;;;;;;;12.33;12.33;;;;;39.44;22.83;100631.44;4918102;28;45465;-77
2022/06/21 11:20:51;;;;;;;;;13.33;13.33;;;;;39.31;22.74;100632.88;4918405;28;45466;-77
2022/06/21 11:23:30;;;;;;;;;19.67;17.00;;;;;39.58;22.77;100642.94;4917891;28;46537;-77
2022/06/21 11:26:14;;;;;;;;;14.00;14.00;;;;;39.81;22.91;100632.22;4918291;28;45468;-77
2022/06/21 11:29:04;;;;;;;;;13.00;13.00;;;;;40.10;22.49;100642.09;4901892;28;45588;-77
2022/06/21 11:31:54;;;;;;;;;14.00;12.67;;;;;40.17;22.21;100639.50;4917888;28;45506;-77
2022/06/21 11:34:37;;;;;;;;;16.00;15.67;;;;;40.22;22.15;100634.34;4917324;28;46334;-77
2022/06/21 11:37:03;;;;;;;;;17.00;15.00;;;;;40.18;22.06;100633.78;4917547;28;45451;-77
2022/06/21 11:39:46;;;;;;;;;15.67;12.00;;;;;40.33;22.40;100630.38;4917720;28;45462;-78
2022/06/21 11:42:32;;;;;;;;;18.00;15.67;;;;;40.32;22.00;100634.19;4917536;28;45546;-77
2022/06/21 11:45:16;;;;;;;;;13.00;13.00;;;;;40.25;22.04;100634.84;4917462;28;46611;-78
2022/06/21 11:48:15;;;;;;;;;15.67;15.67;;;;;40.22;21.97;100626.84;4917681;28;45497;-78
2022/06/21 11:50:59;;;;;;;;;18.33;17.00;;;;;40.33;22.23;100635.94;4901053;29;45466;-78
2022/06/21 11:53:39;;;;;;;;;15.67;12.67;;;;;40.11;22.07;100632.72;4915166;28;45551;-78
2022/06/21 11:56:20;;;;;;;;;16.67;14.67;;;;;40.27;21.80;100637.50;4900398;29;46144;-78
2022/06/21 11:58:56;;;;;;;;;12.67;12.00;;;;;40.50;21.89;100632.19;4900880;29;45308;-77
2022/06/21 12:01:38;;;;;;;;;15.67;13.67;;;;;40.67;22.08;100637.78;4914979;28;45458;-77
2022/06/21 12:04:29;;;;;;;;;11.33;10.67;;;;;40.79;21.51;100637.28;4900759;29;45348;-77
2022/06/21 12:07:03;;;;;;;;;12.67;10.67;;;;;40.81;21.55;100621.28;4900556;29;45593;-77